Terminal Aerodrome Forecast
Issued by NWS Louisville, KY

Home | Current Version | Previous Version | Text Only | Print | Product List | Glossary On
Versions: 1 2 3 4 5 6 7 8 9 10 11 12 13 14 15 16 17
366
FTUS43 KLMK 241722
TAFBWG
TAF
KBWG 241722Z 2418/2518 VRB04KT P6SM SCT060
     FM250000 00000KT P6SM SKC
     FM250700 00000KT 3SM BR SKC
      TEMPO 2509/2513 1SM BR BKN005
     FM251330 VRB03KT P6SM FEW070=

USA.gov is the U.S. government's official web portal to all federal, state and local government web resources and services.